Pittsburg, New Hampshire
Current Conditions -  °F | °C
As of 2:00 PM on Thursday 27 Nov 2014 (Local Time) from CYSC Reporting Station
Overcast Overcast  
Wind Chill: 17°   Ceiling: 2300
Heat Index: 25°   Visibility: 9mi
Dew Point: 19°   Wind: 7mph
Humidity: 80%   Direction: 300°WNW
Pressure: 29.97"   Gusts: NA
Location:  45.05°N, 71.39°W
Report Text: CYSC 271900Z AUTO 30006KT 9SM OVC023 M04/M07 A2997 RMK SLP162
Loading
Personal Weather Stations






























Interactive Weather Map New forecast layout! Learn more

10-Day Weather Forecast

Advertisements
Track Severe Weather on mobile